sensor_id;sensor_type;location;lat;lon;timestamp;P1;durP1;ratioP1;P2;durP2;ratioP2
75655;SDS011;64252;51.094;13.714;2023-04-30T00:01:09;13.95;;;8.55;;
75655;SDS011;64252;51.094;13.714;2023-04-30T00:03:34;11.45;;;8.32;;
75655;SDS011;64252;51.094;13.714;2023-04-30T00:06:00;14.07;;;9.38;;
75655;SDS011;64252;51.094;13.714;2023-04-30T00:08:25;12.02;;;7.95;;
75655;SDS011;64252;51.094;13.714;2023-04-30T00:10:51;15.07;;;8.82;;
75655;SDS011;64252;51.094;13.714;2023-04-30T00:13:16;13.80;;;8.18;;
75655;SDS011;64252;51.094;13.714;2023-04-30T00:15:43;11.45;;;7.10;;
75655;SDS011;64252;51.094;13.714;2023-04-30T00:18:08;13.40;;;8.38;;
75655;SDS011;64252;51.094;13.714;2023-04-30T00:20:34;12.95;;;7.53;;
75655;SDS011;64252;51.094;13.714;2023-04-30T00:23:00;15.15;;;7.28;;
75655;SDS011;64252;51.094;13.714;2023-04-30T00:25:26;11.38;;;6.53;;
75655;SDS011;64252;51.094;13.714;2023-04-30T00:27:51;9.35;;;6.55;;
75655;SDS011;64252;51.094;13.714;2023-04-30T00:30:17;11.05;;;6.30;;
75655;SDS011;64252;51.094;13.714;2023-04-30T00:32:42;10.85;;;6.53;;
75655;SDS011;64252;51.094;13.714;2023-04-30T00:35:10;8.43;;;5.30;;
75655;SDS011;64252;51.094;13.714;2023-04-30T00:37:36;9.40;;;5.57;;
75655;SDS011;64252;51.094;13.714;2023-04-30T00:40:02;8.10;;;5.43;;
75655;SDS011;64252;51.094;13.714;2023-04-30T00:42:28;8.43;;;4.82;;
75655;SDS011;64252;51.094;13.714;2023-04-30T00:44:53;8.93;;;5.15;;
75655;SDS011;64252;51.094;13.714;2023-04-30T00:47:19;10.13;;;4.97;;
75655;SDS011;64252;51.094;13.714;2023-04-30T00:49:45;10.45;;;4.72;;
75655;SDS011;64252;51.094;13.714;2023-04-30T00:52:10;7.70;;;4.65;;
75655;SDS011;64252;51.094;13.714;2023-04-30T00:54:37;11.02;;;5.22;;
75655;SDS011;64252;51.094;13.714;2023-04-30T00:57:02;11.32;;;5.30;;
75655;SDS011;64252;51.094;13.714;2023-04-30T00:59:30;9.52;;;5.20;;
75655;SDS011;64252;51.094;13.714;2023-04-30T01:01:56;7.32;;;4.55;;
75655;SDS011;64252;51.094;13.714;2023-04-30T01:04:22;8.25;;;5.10;;
75655;SDS011;64252;51.094;13.714;2023-04-30T01:06:48;10.13;;;4.93;;
75655;SDS011;64252;51.094;13.714;2023-04-30T01:09:14;7.88;;;4.88;;
75655;SDS011;64252;51.094;13.714;2023-04-30T01:21:11;8.35;;;4.50;;
75655;SDS011;64252;51.094;13.714;2023-04-30T01:29:31;10.98;;;4.57;;
75655;SDS011;64252;51.094;13.714;2023-04-30T01:31:58;7.47;;;4.35;;
75655;SDS011;64252;51.094;13.714;2023-04-30T01:34:25;9.27;;;5.28;;
75655;SDS011;64252;51.094;13.714;2023-04-30T01:37:10;9.15;;;5.25;;
75655;SDS011;64252;51.094;13.714;2023-04-30T01:42:20;9.73;;;4.68;;
75655;SDS011;64252;51.094;13.714;2023-04-30T01:44:53;7.80;;;5.00;;
75655;SDS011;64252;51.094;13.714;2023-04-30T01:47:38;9.73;;;5.57;;
75655;SDS011;64252;51.094;13.714;2023-04-30T01:50:19;10.98;;;5.07;;
75655;SDS011;64252;51.094;13.714;2023-04-30T01:52:53;12.02;;;5.90;;
75655;SDS011;64252;51.094;13.714;2023-04-30T01:55:26;9.82;;;5.60;;
75655;SDS011;64252;51.094;13.714;2023-04-30T02:00:18;8.00;;;5.18;;
75655;SDS011;64252;51.094;13.714;2023-04-30T02:02:43;8.30;;;5.15;;
75655;SDS011;64252;51.094;13.714;2023-04-30T02:05:09;9.60;;;5.20;;
75655;SDS011;64252;51.094;13.714;2023-04-30T02:07:41;9.50;;;5.47;;
75655;SDS011;64252;51.094;13.714;2023-04-30T02:10:09;10.52;;;5.53;;
75655;SDS011;64252;51.094;13.714;2023-04-30T02:12:36;8.55;;;5.15;;
75655;SDS011;64252;51.094;13.714;2023-04-30T02:15:03;9.57;;;5.95;;
75655;SDS011;64252;51.094;13.714;2023-04-30T02:17:29;10.20;;;5.97;;
75655;SDS011;64252;51.094;13.714;2023-04-30T02:19:56;10.48;;;6.10;;
75655;SDS011;64252;51.094;13.714;2023-04-30T02:22:21;11.93;;;6.05;;
75655;SDS011;64252;51.094;13.714;2023-04-30T02:24:47;10.55;;;5.55;;
75655;SDS011;64252;51.094;13.714;2023-04-30T02:27:13;9.63;;;5.95;;
75655;SDS011;64252;51.094;13.714;2023-04-30T02:29:38;10.80;;;6.38;;
75655;SDS011;64252;51.094;13.714;2023-04-30T02:32:05;11.38;;;6.90;;
75655;SDS011;64252;51.094;13.714;2023-04-30T02:34:31;13.90;;;7.13;;
75655;SDS011;64252;51.094;13.714;2023-04-30T02:36:57;14.00;;;7.72;;
75655;SDS011;64252;51.094;13.714;2023-04-30T02:39:22;10.60;;;6.20;;
75655;SDS011;64252;51.094;13.714;2023-04-30T02:41:49;10.40;;;6.55;;
75655;SDS011;64252;51.094;13.714;2023-04-30T02:44:15;13.48;;;7.07;;
75655;SDS011;64252;51.094;13.714;2023-04-30T02:46:40;14.00;;;6.68;;
75655;SDS011;64252;51.094;13.714;2023-04-30T02:49:07;9.80;;;5.85;;
75655;SDS011;64252;51.094;13.714;2023-04-30T02:51:35;12.70;;;6.90;;
75655;SDS011;64252;51.094;13.714;2023-04-30T02:54:01;15.65;;;8.25;;
75655;SDS011;64252;51.094;13.714;2023-04-30T02:56:26;11.80;;;6.57;;
75655;SDS011;64252;51.094;13.714;2023-04-30T02:58:52;10.52;;;6.55;;
75655;SDS011;64252;51.094;13.714;2023-04-30T03:01:18;9.20;;;5.82;;
75655;SDS011;64252;51.094;13.714;2023-04-30T03:03:44;9.68;;;5.93;;
75655;SDS011;64252;51.094;13.714;2023-04-30T03:06:09;11.55;;;5.82;;
75655;SDS011;64252;51.094;13.714;2023-04-30T03:08:35;10.15;;;5.70;;
75655;SDS011;64252;51.094;13.714;2023-04-30T03:11:00;11.30;;;5.60;;
75655;SDS011;64252;51.094;13.714;2023-04-30T03:13:26;11.10;;;5.68;;
75655;SDS011;64252;51.094;13.714;2023-04-30T03:15:58;9.80;;;5.43;;
75655;SDS011;64252;51.094;13.714;2023-04-30T03:18:28;10.73;;;5.00;;
75655;SDS011;64252;51.094;13.714;2023-04-30T03:20:53;7.40;;;4.70;;
75655;SDS011;64252;51.094;13.714;2023-04-30T03:23:19;8.25;;;4.30;;
75655;SDS011;64252;51.094;13.714;2023-04-30T03:25:45;7.63;;;4.50;;
75655;SDS011;64252;51.094;13.714;2023-04-30T03:28:11;8.73;;;4.68;;
75655;SDS011;64252;51.094;13.714;2023-04-30T03:30:37;7.88;;;4.50;;
75655;SDS011;64252;51.094;13.714;2023-04-30T03:33:03;8.02;;;4.38;;
75655;SDS011;64252;51.094;13.714;2023-04-30T03:35:31;9.48;;;4.10;;
75655;SDS011;64252;51.094;13.714;2023-04-30T03:37:59;8.35;;;4.13;;
75655;SDS011;64252;51.094;13.714;2023-04-30T03:40:25;8.25;;;4.40;;
75655;SDS011;64252;51.094;13.714;2023-04-30T03:42:51;8.80;;;3.90;;
75655;SDS011;64252;51.094;13.714;2023-04-30T03:45:16;7.97;;;4.22;;
75655;SDS011;64252;51.094;13.714;2023-04-30T03:47:42;6.80;;;3.72;;
75655;SDS011;64252;51.094;13.714;2023-04-30T03:50:08;7.85;;;4.03;;
75655;SDS011;64252;51.094;13.714;2023-04-30T03:52:35;8.30;;;3.78;;
75655;SDS011;64252;51.094;13.714;2023-04-30T03:55:03;5.72;;;3.60;;
75655;SDS011;64252;51.094;13.714;2023-04-30T03:57:30;9.00;;;4.32;;
75655;SDS011;64252;51.094;13.714;2023-04-30T03:59:57;8.32;;;3.63;;
75655;SDS011;64252;51.094;13.714;2023-04-30T04:02:23;6.93;;;3.33;;
75655;SDS011;64252;51.094;13.714;2023-04-30T04:04:50;7.35;;;3.53;;
75655;SDS011;64252;51.094;13.714;2023-04-30T04:07:16;6.65;;;3.50;;
75655;SDS011;64252;51.094;13.714;2023-04-30T04:09:41;7.25;;;3.33;;
75655;SDS011;64252;51.094;13.714;2023-04-30T04:12:07;6.13;;;3.35;;
75655;SDS011;64252;51.094;13.714;2023-04-30T04:14:33;8.20;;;3.88;;
75655;SDS011;64252;51.094;13.714;2023-04-30T04:17:00;9.02;;;5.05;;
75655;SDS011;64252;51.094;13.714;2023-04-30T04:19:26;6.80;;;3.88;;
75655;SDS011;64252;51.094;13.714;2023-04-30T04:21:52;7.50;;;3.20;;
75655;SDS011;64252;51.094;13.714;2023-04-30T04:24:18;8.30;;;3.35;;
75655;SDS011;64252;51.094;13.714;2023-04-30T04:26:43;7.75;;;3.53;;
75655;SDS011;64252;51.094;13.714;2023-04-30T04:29:09;9.52;;;3.45;;
75655;SDS011;64252;51.094;13.714;2023-04-30T04:31:37;7.32;;;3.58;;
75655;SDS011;64252;51.094;13.714;2023-04-30T04:34:06;6.38;;;3.20;;
75655;SDS011;64252;51.094;13.714;2023-04-30T04:36:31;7.70;;;3.30;;
75655;SDS011;64252;51.094;13.714;2023-04-30T04:38:58;9.40;;;3.45;;
75655;SDS011;64252;51.094;13.714;2023-04-30T04:41:30;7.47;;;3.38;;
75655;SDS011;64252;51.094;13.714;2023-04-30T04:44:01;6.78;;;3.38;;
75655;SDS011;64252;51.094;13.714;2023-04-30T04:46:28;6.82;;;3.75;;
75655;SDS011;64252;51.094;13.714;2023-04-30T04:48:54;6.32;;;3.38;;
75655;SDS011;64252;51.094;13.714;2023-04-30T04:51:20;7.38;;;3.95;;
75655;SDS011;64252;51.094;13.714;2023-04-30T04:53:46;8.98;;;3.47;;
75655;SDS011;64252;51.094;13.714;2023-04-30T04:56:11;8.73;;;3.85;;
75655;SDS011;64252;51.094;13.714;2023-04-30T04:58:38;6.95;;;3.38;;
75655;SDS011;64252;51.094;13.714;2023-04-30T05:01:04;11.35;;;3.50;;
75655;SDS011;64252;51.094;13.714;2023-04-30T05:03:30;7.20;;;3.22;;
75655;SDS011;64252;51.094;13.714;2023-04-30T05:05:57;6.65;;;3.20;;
75655;SDS011;64252;51.094;13.714;2023-04-30T05:08:24;6.35;;;3.42;;
75655;SDS011;64252;51.094;13.714;2023-04-30T05:10:51;7.50;;;3.30;;
75655;SDS011;64252;51.094;13.714;2023-04-30T05:13:16;5.57;;;2.83;;
75655;SDS011;64252;51.094;13.714;2023-04-30T05:15:42;8.00;;;3.60;;
75655;SDS011;64252;51.094;13.714;2023-04-30T05:18:08;6.45;;;3.28;;
75655;SDS011;64252;51.094;13.714;2023-04-30T05:20:34;8.93;;;3.20;;
75655;SDS011;64252;51.094;13.714;2023-04-30T05:23:00;8.20;;;2.85;;
75655;SDS011;64252;51.094;13.714;2023-04-30T05:25:25;5.60;;;3.08;;
75655;SDS011;64252;51.094;13.714;2023-04-30T05:27:51;7.53;;;2.75;;
75655;SDS011;64252;51.094;13.714;2023-04-30T05:30:16;9.38;;;2.75;;
75655;SDS011;64252;51.094;13.714;2023-04-30T05:32:42;6.78;;;2.70;;
75655;SDS011;64252;51.094;13.714;2023-04-30T05:35:08;6.82;;;2.50;;
75655;SDS011;64252;51.094;13.714;2023-04-30T05:37:34;4.30;;;2.40;;
75655;SDS011;64252;51.094;13.714;2023-04-30T05:39:59;7.22;;;2.78;;
75655;SDS011;64252;51.094;13.714;2023-04-30T05:42:25;5.75;;;2.60;;
75655;SDS011;64252;51.094;13.714;2023-04-30T05:44:51;7.68;;;2.83;;
75655;SDS011;64252;51.094;13.714;2023-04-30T05:47:17;5.70;;;2.50;;
75655;SDS011;64252;51.094;13.714;2023-04-30T05:49:42;5.93;;;2.53;;
75655;SDS011;64252;51.094;13.714;2023-04-30T05:52:08;5.72;;;2.70;;
75655;SDS011;64252;51.094;13.714;2023-04-30T05:54:34;5.50;;;2.30;;
75655;SDS011;64252;51.094;13.714;2023-04-30T05:56:59;7.75;;;2.60;;
75655;SDS011;64252;51.094;13.714;2023-04-30T05:59:25;6.75;;;2.78;;
75655;SDS011;64252;51.094;13.714;2023-04-30T06:01:51;10.05;;;2.97;;
75655;SDS011;64252;51.094;13.714;2023-04-30T06:04:16;7.70;;;2.60;;
75655;SDS011;64252;51.094;13.714;2023-04-30T06:06:42;4.82;;;2.70;;
75655;SDS011;64252;51.094;13.714;2023-04-30T06:09:11;7.25;;;2.80;;
75655;SDS011;64252;51.094;13.714;2023-04-30T06:11:36;8.18;;;2.70;;
75655;SDS011;64252;51.094;13.714;2023-04-30T06:14:02;5.63;;;2.45;;
75655;SDS011;64252;51.094;13.714;2023-04-30T06:16:28;6.30;;;2.30;;
75655;SDS011;64252;51.094;13.714;2023-04-30T06:18:54;4.65;;;2.50;;
75655;SDS011;64252;51.094;13.714;2023-04-30T06:21:20;7.97;;;2.88;;
75655;SDS011;64252;51.094;13.714;2023-04-30T06:26:16;7.72;;;3.03;;
75655;SDS011;64252;51.094;13.714;2023-04-30T06:28:41;5.70;;;2.28;;
75655;SDS011;64252;51.094;13.714;2023-04-30T06:31:07;6.82;;;2.45;;
75655;SDS011;64252;51.094;13.714;2023-04-30T06:33:33;7.05;;;2.60;;
75655;SDS011;64252;51.094;13.714;2023-04-30T06:35:58;7.93;;;2.80;;
75655;SDS011;64252;51.094;13.714;2023-04-30T06:38:24;5.45;;;2.38;;
75655;SDS011;64252;51.094;13.714;2023-04-30T06:40:50;9.93;;;2.42;;
75655;SDS011;64252;51.094;13.714;2023-04-30T06:43:16;7.93;;;2.72;;
75655;SDS011;64252;51.094;13.714;2023-04-30T06:45:41;6.65;;;2.45;;
75655;SDS011;64252;51.094;13.714;2023-04-30T06:48:07;9.15;;;2.92;;
75655;SDS011;64252;51.094;13.714;2023-04-30T06:50:32;5.43;;;2.92;;
75655;SDS011;64252;51.094;13.714;2023-04-30T06:52:58;6.85;;;2.67;;
75655;SDS011;64252;51.094;13.714;2023-04-30T06:55:23;7.72;;;2.75;;
75655;SDS011;64252;51.094;13.714;2023-04-30T06:57:49;5.72;;;2.60;;
75655;SDS011;64252;51.094;13.714;2023-04-30T07:00:15;6.35;;;2.38;;
75655;SDS011;64252;51.094;13.714;2023-04-30T07:02:41;6.00;;;2.33;;
75655;SDS011;64252;51.094;13.714;2023-04-30T07:05:07;5.82;;;2.38;;
75655;SDS011;64252;51.094;13.714;2023-04-30T07:07:33;4.45;;;2.13;;
75655;SDS011;64252;51.094;13.714;2023-04-30T07:09:59;7.43;;;2.70;;
75655;SDS011;64252;51.094;13.714;2023-04-30T07:12:24;5.45;;;2.35;;
75655;SDS011;64252;51.094;13.714;2023-04-30T07:14:50;7.05;;;2.40;;
75655;SDS011;64252;51.094;13.714;2023-04-30T07:17:15;6.72;;;2.13;;
75655;SDS011;64252;51.094;13.714;2023-04-30T07:19:42;6.53;;;2.25;;
75655;SDS011;64252;51.094;13.714;2023-04-30T07:22:08;5.35;;;2.60;;
75655;SDS011;64252;51.094;13.714;2023-04-30T07:24:40;5.03;;;2.65;;
75655;SDS011;64252;51.094;13.714;2023-04-30T07:27:05;9.95;;;2.53;;
75655;SDS011;64252;51.094;13.714;2023-04-30T07:29:32;6.47;;;2.22;;
75655;SDS011;64252;51.094;13.714;2023-04-30T07:31:57;7.45;;;3.65;;
75655;SDS011;64252;51.094;13.714;2023-04-30T07:34:23;11.55;;;4.15;;
75655;SDS011;64252;51.094;13.714;2023-04-30T07:36:49;8.45;;;3.15;;
75655;SDS011;64252;51.094;13.714;2023-04-30T07:42:06;9.27;;;2.40;;
75655;SDS011;64252;51.094;13.714;2023-04-30T07:44:31;8.35;;;2.33;;
75655;SDS011;64252;51.094;13.714;2023-04-30T07:46:57;8.30;;;2.72;;
75655;SDS011;64252;51.094;13.714;2023-04-30T07:49:22;9.27;;;2.90;;
75655;SDS011;64252;51.094;13.714;2023-04-30T07:51:49;5.03;;;2.72;;
75655;SDS011;64252;51.094;13.714;2023-04-30T07:54:15;8.55;;;3.20;;
75655;SDS011;64252;51.094;13.714;2023-04-30T07:56:40;7.93;;;2.58;;
75655;SDS011;64252;51.094;13.714;2023-04-30T07:59:06;9.90;;;3.05;;
75655;SDS011;64252;51.094;13.714;2023-04-30T08:01:32;9.20;;;3.35;;
75655;SDS011;64252;51.094;13.714;2023-04-30T08:03:58;7.82;;;2.80;;
75655;SDS011;64252;51.094;13.714;2023-04-30T08:06:24;6.65;;;2.25;;
75655;SDS011;64252;51.094;13.714;2023-04-30T08:08:51;8.23;;;2.42;;
75655;SDS011;64252;51.094;13.714;2023-04-30T08:11:17;5.50;;;2.38;;
75655;SDS011;64252;51.094;13.714;2023-04-30T08:13:43;7.90;;;2.13;;
75655;SDS011;64252;51.094;13.714;2023-04-30T08:16:08;5.85;;;2.75;;
75655;SDS011;64252;51.094;13.714;2023-04-30T08:18:40;6.72;;;2.22;;
75655;SDS011;64252;51.094;13.714;2023-04-30T08:21:09;8.30;;;2.50;;
75655;SDS011;64252;51.094;13.714;2023-04-30T08:23:36;6.03;;;2.42;;
75655;SDS011;64252;51.094;13.714;2023-04-30T08:26:01;6.18;;;2.05;;
75655;SDS011;64252;51.094;13.714;2023-04-30T08:28:27;5.43;;;2.30;;
75655;SDS011;64252;51.094;13.714;2023-04-30T08:30:53;4.97;;;2.00;;
75655;SDS011;64252;51.094;13.714;2023-04-30T08:33:19;8.70;;;2.70;;
75655;SDS011;64252;51.094;13.714;2023-04-30T08:35:44;8.05;;;1.95;;
75655;SDS011;64252;51.094;13.714;2023-04-30T08:38:11;8.10;;;2.20;;
75655;SDS011;64252;51.094;13.714;2023-04-30T08:40:37;7.45;;;2.58;;
75655;SDS011;64252;51.094;13.714;2023-04-30T08:43:06;5.85;;;2.10;;
75655;SDS011;64252;51.094;13.714;2023-04-30T08:45:33;5.88;;;1.90;;
75655;SDS011;64252;51.094;13.714;2023-04-30T08:48:01;6.38;;;2.10;;
75655;SDS011;64252;51.094;13.714;2023-04-30T08:50:28;6.65;;;2.47;;
75655;SDS011;64252;51.094;13.714;2023-04-30T08:52:59;7.20;;;3.33;;
75655;SDS011;64252;51.094;13.714;2023-04-30T08:55:26;7.22;;;2.10;;
75655;SDS011;64252;51.094;13.714;2023-04-30T08:57:52;12.95;;;4.43;;
75655;SDS011;64252;51.094;13.714;2023-04-30T09:00:17;5.90;;;2.28;;
75655;SDS011;64252;51.094;13.714;2023-04-30T09:02:43;6.20;;;2.40;;
75655;SDS011;64252;51.094;13.714;2023-04-30T09:05:11;7.63;;;2.20;;
75655;SDS011;64252;51.094;13.714;2023-04-30T09:07:39;6.50;;;2.15;;
75655;SDS011;64252;51.094;13.714;2023-04-30T09:12:42;7.97;;;2.53;;
75655;SDS011;64252;51.094;13.714;2023-04-30T09:15:11;7.15;;;3.03;;
75655;SDS011;64252;51.094;13.714;2023-04-30T09:17:37;7.78;;;1.92;;
75655;SDS011;64252;51.094;13.714;2023-04-30T09:20:09;6.47;;;2.55;;
75655;SDS011;64252;51.094;13.714;2023-04-30T09:22:37;9.73;;;2.70;;
75655;SDS011;64252;51.094;13.714;2023-04-30T09:25:04;5.60;;;2.10;;
75655;SDS011;64252;51.094;13.714;2023-04-30T09:27:30;7.28;;;2.33;;
75655;SDS011;64252;51.094;13.714;2023-04-30T09:29:56;7.03;;;2.67;;
75655;SDS011;64252;51.094;13.714;2023-04-30T09:32:22;8.48;;;2.40;;
75655;SDS011;64252;51.094;13.714;2023-04-30T09:34:47;5.90;;;2.17;;
75655;SDS011;64252;51.094;13.714;2023-04-30T09:37:13;5.95;;;2.10;;
75655;SDS011;64252;51.094;13.714;2023-04-30T09:39:49;8.77;;;2.47;;
75655;SDS011;64252;51.094;13.714;2023-04-30T09:42:17;7.90;;;2.15;;
75655;SDS011;64252;51.094;13.714;2023-04-30T09:44:45;5.43;;;2.03;;
75655;SDS011;64252;51.094;13.714;2023-04-30T09:47:16;3.97;;;1.65;;
75655;SDS011;64252;51.094;13.714;2023-04-30T09:49:46;6.90;;;2.30;;
75655;SDS011;64252;51.094;13.714;2023-04-30T09:52:15;5.75;;;2.00;;
75655;SDS011;64252;51.094;13.714;2023-04-30T09:54:42;7.45;;;2.30;;
75655;SDS011;64252;51.094;13.714;2023-04-30T09:57:09;5.53;;;2.22;;
75655;SDS011;64252;51.094;13.714;2023-04-30T09:59:37;6.93;;;2.00;;
75655;SDS011;64252;51.094;13.714;2023-04-30T10:02:07;6.35;;;2.08;;
75655;SDS011;64252;51.094;13.714;2023-04-30T10:07:14;4.90;;;2.20;;
75655;SDS011;64252;51.094;13.714;2023-04-30T10:10:03;3.78;;;1.83;;
75655;SDS011;64252;51.094;13.714;2023-04-30T10:12:55;7.75;;;2.47;;
75655;SDS011;64252;51.094;13.714;2023-04-30T10:15:27;9.18;;;2.28;;
75655;SDS011;64252;51.094;13.714;2023-04-30T10:17:59;5.97;;;1.90;;
75655;SDS011;64252;51.094;13.714;2023-04-30T10:20:28;6.93;;;2.03;;
75655;SDS011;64252;51.094;13.714;2023-04-30T10:22:55;6.30;;;1.80;;
75655;SDS011;64252;51.094;13.714;2023-04-30T10:25:21;5.70;;;2.00;;
75655;SDS011;64252;51.094;13.714;2023-04-30T10:27:47;6.05;;;1.65;;
75655;SDS011;64252;51.094;13.714;2023-04-30T10:30:13;7.10;;;2.22;;
75655;SDS011;64252;51.094;13.714;2023-04-30T10:32:51;5.22;;;1.70;;
75655;SDS011;64252;51.094;13.714;2023-04-30T10:35:22;5.65;;;1.90;;
75655;SDS011;64252;51.094;13.714;2023-04-30T10:38:06;4.85;;;1.70;;
75655;SDS011;64252;51.094;13.714;2023-04-30T10:40:37;5.20;;;1.92;;
75655;SDS011;64252;51.094;13.714;2023-04-30T10:43:03;5.05;;;2.22;;
75655;SDS011;64252;51.094;13.714;2023-04-30T10:45:35;6.85;;;2.35;;
75655;SDS011;64252;51.094;13.714;2023-04-30T10:48:02;5.30;;;1.80;;
75655;SDS011;64252;51.094;13.714;2023-04-30T10:50:29;6.47;;;2.08;;
75655;SDS011;64252;51.094;13.714;2023-04-30T10:53:13;5.88;;;1.65;;
75655;SDS011;64252;51.094;13.714;2023-04-30T10:55:46;6.30;;;1.73;;
75655;SDS011;64252;51.094;13.714;2023-04-30T10:58:35;5.72;;;1.80;;
75655;SDS011;64252;51.094;13.714;2023-04-30T11:03:31;6.90;;;1.83;;
75655;SDS011;64252;51.094;13.714;2023-04-30T11:05:59;3.88;;;1.65;;
75655;SDS011;64252;51.094;13.714;2023-04-30T11:08:32;5.78;;;1.80;;
75655;SDS011;64252;51.094;13.714;2023-04-30T11:10:59;9.32;;;3.58;;
75655;SDS011;64252;51.094;13.714;2023-04-30T11:13:28;7.78;;;3.08;;
75655;SDS011;64252;51.094;13.714;2023-04-30T11:16:12;6.03;;;2.10;;
75655;SDS011;64252;51.094;13.714;2023-04-30T11:18:40;6.38;;;1.85;;
75655;SDS011;64252;51.094;13.714;2023-04-30T11:21:08;6.30;;;2.10;;
75655;SDS011;64252;51.094;13.714;2023-04-30T11:23:34;6.05;;;1.70;;
75655;SDS011;64252;51.094;13.714;2023-04-30T11:26:00;5.05;;;1.65;;
75655;SDS011;64252;51.094;13.714;2023-04-30T11:28:26;6.65;;;1.60;;
75655;SDS011;64252;51.094;13.714;2023-04-30T11:30:53;6.07;;;1.60;;
75655;SDS011;64252;51.094;13.714;2023-04-30T11:33:21;4.95;;;1.48;;
75655;SDS011;64252;51.094;13.714;2023-04-30T11:35:48;7.38;;;2.03;;
75655;SDS011;64252;51.094;13.714;2023-04-30T11:38:18;5.80;;;1.88;;
75655;SDS011;64252;51.094;13.714;2023-04-30T11:40:46;5.20;;;1.85;;
75655;SDS011;64252;51.094;13.714;2023-04-30T11:43:46;6.50;;;2.00;;
75655;SDS011;64252;51.094;13.714;2023-04-30T11:46:08;4.38;;;1.50;;
75655;SDS011;64252;51.094;13.714;2023-04-30T11:48:43;7.07;;;1.95;;
75655;SDS011;64252;51.094;13.714;2023-04-30T11:56:11;5.13;;;1.63;;
75655;SDS011;64252;51.094;13.714;2023-04-30T11:58:37;4.50;;;1.90;;
75655;SDS011;64252;51.094;13.714;2023-04-30T12:01:07;5.05;;;1.55;;
75655;SDS011;64252;51.094;13.714;2023-04-30T12:03:42;4.57;;;1.48;;
75655;SDS011;64252;51.094;13.714;2023-04-30T12:06:20;7.63;;;1.90;;
75655;SDS011;64252;51.094;13.714;2023-04-30T12:08:55;4.70;;;1.75;;
75655;SDS011;64252;51.094;13.714;2023-04-30T12:11:22;5.00;;;1.80;;
75655;SDS011;64252;51.094;13.714;2023-04-30T12:13:50;7.28;;;1.88;;
75655;SDS011;64252;51.094;13.714;2023-04-30T12:16:17;4.35;;;1.92;;
75655;SDS011;64252;51.094;13.714;2023-04-30T12:18:44;5.32;;;2.40;;
75655;SDS011;64252;51.094;13.714;2023-04-30T12:21:10;6.38;;;1.88;;
75655;SDS011;64252;51.094;13.714;2023-04-30T12:23:36;4.70;;;1.77;;
75655;SDS011;64252;51.094;13.714;2023-04-30T12:26:02;6.07;;;1.35;;
75655;SDS011;64252;51.094;13.714;2023-04-30T12:28:27;4.85;;;1.30;;
75655;SDS011;64252;51.094;13.714;2023-04-30T12:30:53;6.60;;;1.60;;
75655;SDS011;64252;51.094;13.714;2023-04-30T12:33:18;3.20;;;1.30;;
75655;SDS011;64252;51.094;13.714;2023-04-30T12:35:44;9.38;;;2.97;;
75655;SDS011;64252;51.094;13.714;2023-04-30T12:38:11;3.78;;;1.70;;
75655;SDS011;64252;51.094;13.714;2023-04-30T12:40:45;6.80;;;1.90;;
75655;SDS011;64252;51.094;13.714;2023-04-30T12:43:13;3.78;;;1.35;;
75655;SDS011;64252;51.094;13.714;2023-04-30T12:45:44;5.57;;;1.42;;
75655;SDS011;64252;51.094;13.714;2023-04-30T12:48:21;5.88;;;1.58;;
75655;SDS011;64252;51.094;13.714;2023-04-30T12:50:52;5.20;;;1.92;;
75655;SDS011;64252;51.094;13.714;2023-04-30T12:53:19;5.90;;;1.40;;
75655;SDS011;64252;51.094;13.714;2023-04-30T12:58:34;6.35;;;1.33;;
75655;SDS011;64252;51.094;13.714;2023-04-30T13:00:59;4.55;;;1.38;;
75655;SDS011;64252;51.094;13.714;2023-04-30T13:03:25;7.82;;;1.50;;
75655;SDS011;64252;51.094;13.714;2023-04-30T13:05:51;5.00;;;1.23;;
75655;SDS011;64252;51.094;13.714;2023-04-30T13:08:17;7.40;;;1.58;;
75655;SDS011;64252;51.094;13.714;2023-04-30T13:10:45;7.53;;;2.05;;
75655;SDS011;64252;51.094;13.714;2023-04-30T13:13:12;4.05;;;1.48;;
75655;SDS011;64252;51.094;13.714;2023-04-30T13:15:39;4.63;;;1.40;;
75655;SDS011;64252;51.094;13.714;2023-04-30T13:18:06;6.45;;;1.20;;
75655;SDS011;64252;51.094;13.714;2023-04-30T13:20:36;4.70;;;1.48;;
75655;SDS011;64252;51.094;13.714;2023-04-30T13:23:03;3.03;;;1.17;;
75655;SDS011;64252;51.094;13.714;2023-04-30T13:25:31;4.60;;;1.33;;
75655;SDS011;64252;51.094;13.714;2023-04-30T13:27:58;5.00;;;1.58;;
75655;SDS011;64252;51.094;13.714;2023-04-30T13:30:23;3.10;;;1.20;;
75655;SDS011;64252;51.094;13.714;2023-04-30T13:32:49;4.45;;;1.05;;
75655;SDS011;64252;51.094;13.714;2023-04-30T13:35:17;3.55;;;1.20;;
75655;SDS011;64252;51.094;13.714;2023-04-30T13:37:43;2.83;;;0.90;;
75655;SDS011;64252;51.094;13.714;2023-04-30T13:40:09;5.95;;;1.40;;
75655;SDS011;64252;51.094;13.714;2023-04-30T13:42:36;3.30;;;1.08;;
75655;SDS011;64252;51.094;13.714;2023-04-30T13:45:05;4.13;;;1.40;;
75655;SDS011;64252;51.094;13.714;2023-04-30T13:47:32;4.60;;;1.17;;
75655;SDS011;64252;51.094;13.714;2023-04-30T13:49:58;2.40;;;0.90;;
75655;SDS011;64252;51.094;13.714;2023-04-30T13:52:24;3.67;;;1.00;;
75655;SDS011;64252;51.094;13.714;2023-04-30T13:54:51;3.72;;;1.10;;
75655;SDS011;64252;51.094;13.714;2023-04-30T13:57:16;3.67;;;1.02;;
75655;SDS011;64252;51.094;13.714;2023-04-30T13:59:42;4.10;;;1.20;;
75655;SDS011;64252;51.094;13.714;2023-04-30T14:02:08;5.05;;;1.33;;
75655;SDS011;64252;51.094;13.714;2023-04-30T14:04:34;4.80;;;1.23;;
75655;SDS011;64252;51.094;13.714;2023-04-30T14:07:00;5.20;;;1.30;;
75655;SDS011;64252;51.094;13.714;2023-04-30T14:09:26;2.95;;;1.10;;
75655;SDS011;64252;51.094;13.714;2023-04-30T14:11:52;2.47;;;0.90;;
75655;SDS011;64252;51.094;13.714;2023-04-30T14:14:20;4.63;;;1.05;;
75655;SDS011;64252;51.094;13.714;2023-04-30T14:16:45;4.93;;;1.00;;
75655;SDS011;64252;51.094;13.714;2023-04-30T14:19:11;3.33;;;1.00;;
75655;SDS011;64252;51.094;13.714;2023-04-30T14:21:36;6.40;;;1.08;;
75655;SDS011;64252;51.094;13.714;2023-04-30T14:24:02;4.53;;;1.02;;
75655;SDS011;64252;51.094;13.714;2023-04-30T14:26:28;5.30;;;1.40;;
75655;SDS011;64252;51.094;13.714;2023-04-30T14:28:54;2.95;;;1.02;;
75655;SDS011;64252;51.094;13.714;2023-04-30T14:31:20;3.58;;;0.98;;
75655;SDS011;64252;51.094;13.714;2023-04-30T14:33:45;3.97;;;1.00;;
75655;SDS011;64252;51.094;13.714;2023-04-30T14:36:11;4.40;;;1.13;;
75655;SDS011;64252;51.094;13.714;2023-04-30T14:38:36;5.72;;;1.10;;
75655;SDS011;64252;51.094;13.714;2023-04-30T14:41:02;9.02;;;1.45;;
75655;SDS011;64252;51.094;13.714;2023-04-30T14:43:27;7.05;;;1.95;;
75655;SDS011;64252;51.094;13.714;2023-04-30T14:45:53;3.92;;;1.10;;
75655;SDS011;64252;51.094;13.714;2023-04-30T14:48:19;3.60;;;0.82;;
75655;SDS011;64252;51.094;13.714;2023-04-30T14:50:44;5.50;;;0.95;;
75655;SDS011;64252;51.094;13.714;2023-04-30T14:53:10;5.80;;;1.30;;
75655;SDS011;64252;51.094;13.714;2023-04-30T14:55:37;3.83;;;0.90;;
75655;SDS011;64252;51.094;13.714;2023-04-30T14:58:03;3.20;;;0.90;;
75655;SDS011;64252;51.094;13.714;2023-04-30T15:00:30;4.50;;;0.95;;
75655;SDS011;64252;51.094;13.714;2023-04-30T15:02:56;3.42;;;1.10;;
75655;SDS011;64252;51.094;13.714;2023-04-30T15:05:21;4.40;;;1.63;;
75655;SDS011;64252;51.094;13.714;2023-04-30T15:07:47;3.70;;;1.40;;
75655;SDS011;64252;51.094;13.714;2023-04-30T15:10:12;2.92;;;1.05;;
75655;SDS011;64252;51.094;13.714;2023-04-30T15:12:38;4.40;;;1.20;;
75655;SDS011;64252;51.094;13.714;2023-04-30T15:15:05;4.47;;;1.30;;